logo
Search for airport 
image banner adimage banner adimage banner ad
image banner ad

ED0283 - Ibbenbueren-Land

Located in , Germany

ICAO - , IATA -

Data provided by Airmate  

General information

Coordinates: N52°20'8" E7°37'30"
Elevation is 151 feet MSL.
 
View others Airports in North Rhine-Westphalia

Operational data

Special qualification required
Current time UTC:
Current local time:
Weather at : EDDG - Muenster/Osnabrueck ( 23 km )
METAR: EDDG 130150Z AUTO 22006KT 9999 BKN012 OVC044 14/12 Q1010 NOSIG
TAF: TAF EDDG 122300Z 1300/1324 24008KT 9999 BKN012 PROB30 TEMPO 1300/1304 BKN008 BECMG 1306/1309 22013KT BKN020 TEMPO 1308/1315 23015G25KT PROB30 TEMPO 1311/1316 SHRA BKN012 BKN025TCU BECMG 1315/1318 23008KT BECMG 1319/1321 VRB03KT
View NOTAMs / SUP AIP / TFR affecting this airport [VIEW]
Communications frequencies: [VIEW]

Runways:

Airport contact information

Address: Germany

Satellite view of ED0283